Time;durP1;ratioP1;P1;durP2;ratioP2;P2;SDS_P1;SDS_P2;PMS_P1;PMS_P2;Temp;Humidity;BMP_temperature;BMP_pressure;BME280_temperature;BME280_humidity;BME280_pressure;Samples;Min_cycle;Max_cycle;Signal;HPM_P1;HPM_P2
2022/06/10 00:00:45;;;;;;;4.10;2.90;;;;;;;18.57;70.22;94652.75;4988958;28;20034;-82
2022/06/10 00:03:11;;;;;;;5.20;3.00;;;;;;;18.58;70.30;94651.69;4988869;28;20046;-82
2022/06/10 00:05:37;;;;;;;5.55;3.10;;;;;;;18.60;70.05;94661.25;5005866;28;20026;-82
2022/06/10 00:08:10;;;;;;;4.88;2.97;;;;;;;18.63;69.68;94665.34;5005774;28;20104;-82
2022/06/10 00:10:35;;;;;;;4.38;3.03;;;;;;;18.65;69.44;94658.59;5005181;28;20029;-82
2022/06/10 00:13:01;;;;;;;3.60;3.10;;;;;;;18.68;69.55;94653.75;4989261;28;20174;-83
2022/06/10 00:15:26;;;;;;;4.53;3.05;;;;;;;18.66;69.52;94651.28;5022097;28;20491;-83
2022/06/10 00:17:52;;;;;;;4.78;3.60;;;;;;;18.65;69.83;94653.16;5007035;28;20025;-83
2022/06/10 00:20:19;;;;;;;5.00;2.88;;;;;;;18.61;69.93;94660.16;4988403;28;20029;-83
2022/06/10 00:22:44;;;;;;;4.25;2.92;;;;;;;18.66;69.79;94651.28;4988610;28;20033;-83
2022/06/10 00:25:10;;;;;;;5.88;3.20;;;;;;;18.66;70.10;94654.00;5021641;28;20026;-82
2022/06/10 00:27:35;;;;;;;4.32;3.13;;;;;;;18.60;69.95;94644.94;5004217;28;20539;-82
2022/06/10 00:30:04;;;;;;;5.80;3.00;;;;;;;18.62;69.81;94642.78;5004899;28;20437;-82
2022/06/10 00:32:29;;;;;;;4.00;2.78;;;;;;;18.65;69.65;94633.34;4988510;28;20033;-82
2022/06/10 00:34:54;;;;;;;4.50;3.22;;;;;;;18.69;69.67;94631.75;5005385;28;20025;-82
2022/06/10 00:37:20;;;;;;;4.93;3.20;;;;;;;18.70;69.93;94636.13;5005164;28;20025;-83
2022/06/10 00:39:45;;;;;;;5.57;2.97;;;;;;;18.66;70.49;94637.69;5005757;28;20030;-82
2022/06/10 00:42:11;;;;;;;5.53;3.38;;;;;;;18.64;70.64;94637.94;5007383;28;20788;-83
2022/06/10 00:44:37;;;;;;;4.72;2.88;;;;;;;18.64;70.17;94643.38;5009711;28;20049;-83
2022/06/10 00:47:35;;;;;;;5.47;3.45;;;;;;;18.60;69.28;94642.22;5009058;28;20034;-83
2022/06/10 00:50:19;;;;;;;4.07;2.70;;;;;;;18.57;68.67;94634.56;5002356;28;20462;-82
2022/06/10 00:52:52;;;;;;;3.40;2.75;;;;;;;18.49;68.45;94624.13;5023543;28;20030;-83
2022/06/10 00:55:17;;;;;;;3.72;2.90;;;;;;;18.45;67.73;94625.69;5004985;28;20463;-82
2022/06/10 00:57:58;;;;;;;5.03;3.20;;;;;;;18.40;67.85;94624.53;4990244;28;20381;-83
2022/06/10 01:00:23;;;;;;;5.30;3.30;;;;;;;18.40;67.91;94629.97;4974389;28;20113;-83
2022/06/10 01:02:49;;;;;;;4.10;3.22;;;;;;;18.49;67.70;94632.28;4988808;28;20026;-82
2022/06/10 01:05:19;;;;;;;4.82;2.90;;;;;;;18.46;68.23;94632.78;5006753;28;20034;-81
2022/06/10 01:07:59;;;;;;;6.22;3.25;;;;;;;18.56;67.99;94623.94;4989315;28;20036;-82
2022/06/10 01:10:24;;;;;;;9.60;3.50;;;;;;;18.39;68.55;94625.59;5005764;28;20041;-82
2022/06/10 01:13:16;;;;;;;3.97;2.97;;;;;;;18.27;68.68;94631.09;5005400;28;20053;-82
2022/06/10 01:16:11;;;;;;;5.63;3.20;;;;;;;18.22;68.72;94631.03;5005168;28;20120;-83
2022/06/10 01:18:56;;;;;;;4.90;3.10;;;;;;;18.10;69.46;94628.34;4995240;28;20033;-82
2022/06/10 01:21:31;;;;;;;6.75;3.53;;;;;;;18.02;69.99;94626.84;5009460;28;20473;-82
2022/06/10 01:24:26;;;;;;;5.82;3.40;;;;;;;17.94;70.18;94634.56;5009226;28;20037;-82
2022/06/10 01:30:10;;;;;;;3.83;3.20;;;;;;;17.86;70.43;94636.59;5008870;28;20092;-82
2022/06/10 01:32:49;;;;;;;4.00;3.10;;;;;;;17.81;71.10;94627.53;5004173;28;20042;-82
2022/06/10 01:35:20;;;;;;;4.60;3.22;;;;;;;17.87;70.71;94627.41;4993495;28;20041;-82
2022/06/10 01:38:15;;;;;;;4.63;3.40;;;;;;;17.94;70.53;94632.69;5007870;28;20021;-82
2022/06/10 01:40:54;;;;;;;5.32;3.35;;;;;;;17.95;70.48;94630.78;5008775;28;20057;-82
2022/06/10 01:43:48;;;;;;;5.35;3.40;;;;;;;17.95;70.86;94637.03;5007869;28;20053;-82
2022/06/10 01:46:19;;;;;;;4.22;3.53;;;;;;;17.99;70.72;94640.91;5004257;28;20073;-82
2022/06/10 01:49:24;;;;;;;4.80;3.33;;;;;;;18.02;70.63;94645.03;4992537;28;20052;-83
2022/06/10 01:51:59;;;;;;;7.10;3.88;;;;;;;18.03;70.40;94639.34;5024037;28;20045;-82
2022/06/10 01:55:01;;;;;;;5.20;3.40;;;;;;;18.12;70.15;94642.50;5007151;28;20065;-83
2022/06/10 01:57:55;;;;;;;4.63;3.78;;;;;;;17.99;71.07;94634.66;5008103;28;20104;-83
2022/06/10 02:00:24;;;;;;;5.50;3.88;;;;;;;18.00;71.23;94637.13;5007567;28;20124;-83
2022/06/10 02:02:54;;;;;;;6.85;3.65;;;;;;;18.03;70.88;94642.06;5008060;28;20341;-83
2022/06/10 02:05:20;;;;;;;5.97;3.88;;;;;;;18.07;70.84;94636.97;5007759;28;20060;-84
2022/06/10 02:08:27;;;;;;;7.97;4.43;;;;;;;18.17;70.53;94644.50;5007452;28;20405;-83
2022/06/10 02:11:08;;;;;;;6.38;3.90;;;;;;;18.24;70.28;94647.06;4967885;28;20063;-84
2022/06/10 02:13:46;;;;;;;7.15;3.45;;;;;;;18.30;70.15;94643.34;4950492;28;20597;-84
2022/06/10 02:16:14;;;;;;;5.97;3.83;;;;;;;18.25;70.55;94640.56;4987274;28;20042;-84
2022/06/10 02:18:53;;;;;;;5.70;4.40;;;;;;;18.25;70.51;94651.44;4991202;28;20026;-83
2022/06/10 02:21:41;;;;;;;5.00;4.05;;;;;;;18.29;70.34;94655.28;4991110;28;20114;-83
2022/06/10 02:24:18;;;;;;;7.28;3.67;;;;;;;18.32;70.98;94649.38;4992881;28;20084;-83
2022/06/10 02:26:45;;;;;;;5.40;3.38;;;;;;;18.35;71.28;94648.88;4991099;28;20029;-83
2022/06/10 02:29:12;;;;;;;5.38;4.05;;;;;;;18.38;71.99;94648.38;5007813;28;20225;-83
2022/06/10 02:31:43;;;;;;;4.88;4.00;;;;;;;18.40;71.60;94640.00;4990784;28;20048;-83
2022/06/10 02:34:09;;;;;;;5.88;3.78;;;;;;;18.39;71.38;94650.03;4991081;28;20037;-84
2022/06/10 02:36:40;;;;;;;5.05;3.78;;;;;;;18.39;70.89;94643.78;4991198;28;20475;-84
2022/06/10 02:39:14;;;;;;;10.43;4.55;;;;;;;18.40;70.69;94656.28;5007845;28;20492;-83
2022/06/10 02:42:07;;;;;;;6.43;4.30;;;;;;;18.43;70.86;94657.69;5040640;28;20124;-83
2022/06/10 02:44:49;;;;;;;8.32;3.72;;;;;;;18.44;71.01;94664.75;5008035;28;20471;-83
2022/06/10 02:47:28;;;;;;;5.85;3.97;;;;;;;18.44;71.29;94659.34;5006613;28;20103;-83
2022/06/10 02:49:53;;;;;;;5.85;3.75;;;;;;;18.44;70.92;94662.88;5006892;28;20123;-83
2022/06/10 02:52:19;;;;;;;9.70;4.65;;;;;;;18.45;70.71;94660.97;5006859;28;20061;-83
2022/06/10 02:54:45;;;;;;;6.68;3.78;;;;;;;18.47;70.81;94661.56;4991006;28;20042;-83
2022/06/10 02:57:14;;;;;;;5.05;4.38;;;;;;;18.46;71.54;94665.34;4989789;28;20026;-82
2022/06/10 03:02:45;;;;;;;9.02;5.13;;;;;;;18.37;71.74;94668.47;5020603;28;20527;-83
2022/06/10 03:05:14;;;;;;;9.48;5.35;;;;;;;18.36;72.42;94679.56;5006375;28;20028;-83
2022/06/10 03:08:18;;;;;;;6.53;5.32;;;;;;;18.36;71.83;94671.44;5008804;28;20108;-83
2022/06/10 03:10:57;;;;;;;7.40;4.80;;;;;;;18.41;72.13;94675.03;5003114;28;20038;-84
2022/06/10 03:13:33;;;;;;;7.45;5.00;;;;;;;18.39;72.01;94676.38;5006134;28;20452;-84
2022/06/10 03:16:28;;;;;;;5.93;4.80;;;;;;;18.40;72.36;94673.41;5006119;28;20516;-83
2022/06/10 03:19:31;;;;;;;7.45;4.70;;;;;;;18.36;72.24;94674.13;5006612;28;20491;-84
2022/06/10 03:22:16;;;;;;;5.70;5.10;;;;;;;18.32;71.61;94670.25;5006773;28;20048;-84
2022/06/10 03:25:00;;;;;;;8.23;5.00;;;;;;;18.31;71.85;94674.88;5007227;28;20022;-84
2022/06/10 03:27:58;;;;;;;7.35;5.47;;;;;;;18.36;72.37;94676.84;5007349;28;20345;-82
2022/06/10 03:30:30;;;;;;;6.50;5.47;;;;;;;18.32;71.94;94675.69;4988953;28;20092;-83
2022/06/10 03:33:08;;;;;;;7.70;5.50;;;;;;;18.33;71.91;94672.72;4990092;28;20029;-83
2022/06/10 03:36:14;;;;;;;7.05;5.55;;;;;;;18.31;71.46;94676.75;5005301;28;20068;-84
2022/06/10 03:38:41;;;;;;;6.75;5.10;;;;;;;18.19;71.62;94682.25;5007865;28;20420;-82
2022/06/10 03:41:07;;;;;;;6.45;5.38;;;;;;;18.23;72.33;94680.69;4992085;28;20036;-82
2022/06/10 03:43:37;;;;;;;8.75;5.97;;;;;;;18.18;72.20;94686.03;5005757;28;20703;-82
2022/06/10 03:46:05;;;;;;;5.90;5.28;;;;;;;18.13;71.53;94690.31;4988583;28;20037;-82
2022/06/10 03:48:33;;;;;;;7.93;4.93;;;;;;;18.12;72.18;94685.13;5004854;28;20054;-82
2022/06/10 03:50:58;;;;;;;5.50;4.57;;;;;;;18.10;72.67;94681.78;5005311;28;20132;-82
2022/06/10 03:53:24;;;;;;;8.00;4.80;;;;;;;18.14;72.56;94683.81;4989725;28;20049;-82
2022/06/10 03:55:50;;;;;;;8.63;5.15;;;;;;;18.23;73.27;94686.94;5009920;28;20042;-80
2022/06/10 03:58:16;;;;;;;6.10;4.93;;;;;;;18.16;72.94;94695.25;5007541;28;20030;-82
2022/06/10 04:00:41;;;;;;;9.20;5.53;;;;;;;18.19;72.94;94690.38;5006227;28;20026;-82
2022/06/10 04:03:07;;;;;;;6.35;5.30;;;;;;;18.23;73.30;94694.25;4988282;28;20118;-82
2022/06/10 04:05:32;;;;;;;9.77;6.45;;;;;;;18.26;73.70;94693.78;4990116;28;20037;-83
2022/06/10 04:07:58;;;;;;;8.05;5.25;;;;;;;18.26;73.57;94689.19;5006176;28;20404;-83
2022/06/10 04:10:25;;;;;;;5.40;4.78;;;;;;;18.34;73.53;94692.56;4989073;28;20065;-83
2022/06/10 04:12:51;;;;;;;9.20;5.20;;;;;;;18.36;72.86;94691.22;4989562;28;20492;-82
2022/06/10 04:15:16;;;;;;;10.93;4.80;;;;;;;18.30;73.40;94688.69;5004571;28;20028;-82
2022/06/10 04:17:49;;;;;;;7.03;4.57;;;;;;;18.34;72.83;94690.66;5006345;28;20018;-82
2022/06/10 04:20:23;;;;;;;6.15;4.78;;;;;;;18.38;72.91;94691.81;4988009;28;20029;-82
2022/06/10 04:22:48;;;;;;;6.97;4.53;;;;;;;18.38;73.12;94702.66;4990161;28;20046;-83
2022/06/10 04:25:14;;;;;;;7.35;5.10;;;;;;;18.32;71.77;94689.25;4988174;28;20053;-83
2022/06/10 04:27:39;;;;;;;6.40;5.28;;;;;;;18.24;71.88;94694.03;5005492;28;20029;-83
2022/06/10 04:30:06;;;;;;;6.03;4.68;;;;;;;18.25;72.44;94697.56;5021508;28;20022;-83
2022/06/10 04:32:31;;;;;;;7.50;4.93;;;;;;;18.31;72.18;94701.19;4987947;28;20401;-83
2022/06/10 04:34:57;;;;;;;5.65;5.05;;;;;;;18.31;71.87;94702.03;5005346;28;20033;-83
2022/06/10 04:37:22;;;;;;;6.55;5.43;;;;;;;18.31;72.15;94703.91;5005875;28;20428;-82
2022/06/10 04:39:48;;;;;;;6.05;5.00;;;;;;;18.30;72.19;94705.78;4989414;28;20022;-82
2022/06/10 04:42:13;;;;;;;7.63;5.43;;;;;;;18.31;72.68;94704.72;5037172;28;20026;-83
2022/06/10 04:44:39;;;;;;;7.13;4.78;;;;;;;18.35;73.13;94713.19;5005350;28;20022;-83
2022/06/10 04:47:07;;;;;;;5.82;4.60;;;;;;;18.41;72.71;94707.63;5005787;28;20470;-83
2022/06/10 04:49:32;;;;;;;6.88;5.40;;;;;;;18.48;72.88;94706.63;5004962;28;20034;-82
2022/06/10 04:51:58;;;;;;;6.47;5.40;;;;;;;18.41;72.40;94712.22;5023377;28;20463;-83
2022/06/10 04:54:23;;;;;;;7.53;5.70;;;;;;;18.36;73.12;94710.22;4991928;28;20030;-82
2022/06/10 04:56:49;;;;;;;8.52;5.72;;;;;;;18.48;73.31;94712.06;5010043;28;20041;-83
2022/06/10 04:59:14;;;;;;;6.20;5.32;;;;;;;18.51;72.87;94711.56;4991807;28;20021;-81
2022/06/10 05:01:40;;;;;;;7.95;6.10;;;;;;;18.55;73.29;94726.31;5025638;28;20029;-84
2022/06/10 05:04:05;;;;;;;6.05;5.22;;;;;;;18.59;73.44;94724.75;5008725;28;20033;-84
2022/06/10 05:06:31;;;;;;;8.07;5.45;;;;;;;18.62;73.08;94723.44;4993091;28;20080;-83
2022/06/10 05:08:56;;;;;;;10.27;5.47;;;;;;;18.61;72.99;94729.94;5009113;28;20405;-83
2022/06/10 05:11:22;;;;;;;7.60;5.50;;;;;;;18.70;72.86;94724.94;5025036;28;20060;-84
2022/06/10 05:13:48;;;;;;;8.15;5.63;;;;;;;18.71;73.06;94727.41;5008325;28;20041;-83
2022/06/10 05:16:13;;;;;;;8.88;6.20;;;;;;;18.72;73.67;94730.91;4991501;28;20033;-83
2022/06/10 05:18:39;;;;;;;11.07;6.43;;;;;;;18.73;73.03;94738.03;4992249;28;20499;-84
2022/06/10 05:21:04;;;;;;;9.02;5.95;;;;;;;18.65;73.00;94739.25;4991100;28;20029;-83
2022/06/10 05:23:30;;;;;;;9.50;6.68;;;;;;;18.69;72.49;94742.28;5010032;28;20026;-84
2022/06/10 05:25:55;;;;;;;11.90;6.38;;;;;;;18.55;73.34;94739.91;4990675;28;20543;-83
2022/06/10 05:28:21;;;;;;;10.57;6.65;;;;;;;18.49;73.10;94724.59;5008954;28;20068;-81
2022/06/10 05:30:47;;;;;;;10.05;6.65;;;;;;;18.39;73.41;94730.66;5007368;28;20079;-84
2022/06/10 05:33:12;;;;;;;15.32;6.95;;;;;;;18.34;73.72;94725.97;5008176;28;20033;-84
2022/06/10 05:35:38;;;;;;;10.98;7.50;;;;;;;18.43;73.33;94731.00;5007765;28;20040;-84
2022/06/10 05:38:04;;;;;;;15.38;7.55;;;;;;;18.43;74.01;94731.00;5007044;28;20061;-84
2022/06/10 05:40:30;;;;;;;13.00;6.80;;;;;;;18.46;73.93;94735.94;5007993;28;20030;-84
2022/06/10 05:42:55;;;;;;;13.45;7.55;;;;;;;18.55;72.87;94730.91;5006446;28;20404;-84
2022/06/10 05:45:21;;;;;;;10.20;7.55;;;;;;;18.46;73.62;94736.75;5009819;28;20022;-82
2022/06/10 05:47:48;;;;;;;12.90;7.95;;;;;;;18.37;73.78;94736.31;5007019;28;20048;-83
2022/06/10 05:50:21;;;;;;;9.70;7.75;;;;;;;18.44;73.60;94735.34;5025369;28;20040;-85
2022/06/10 05:52:46;;;;;;;10.88;7.88;;;;;;;18.47;74.29;94734.84;5006979;28;20025;-84
2022/06/10 05:55:12;;;;;;;9.15;7.40;;;;;;;18.49;74.29;94736.25;5006842;28;20065;-84
2022/06/10 05:57:38;;;;;;;7.97;7.15;;;;;;;18.57;74.40;94737.75;4991260;28;20025;-84
2022/06/10 06:00:07;;;;;;;8.98;7.78;;;;;;;18.65;73.62;94740.06;5007798;28;20030;-84
2022/06/10 06:02:33;;;;;;;7.70;6.88;;;;;;;18.64;74.21;94743.03;4975119;28;20415;-82
2022/06/10 06:04:58;;;;;;;12.00;8.02;;;;;;;18.67;74.11;94744.44;5007103;28;20022;-82
2022/06/10 06:07:27;;;;;;;10.80;7.50;;;;;;;18.68;74.07;94748.78;5024263;28;20227;-81
2022/06/10 06:09:53;;;;;;;9.75;7.70;;;;;;;18.72;73.63;94748.06;5005977;28;20128;-83
2022/06/10 06:12:19;;;;;;;10.30;7.63;;;;;;;18.77;74.59;94752.75;4974594;28;20033;-83
2022/06/10 06:14:44;;;;;;;10.15;7.40;;;;;;;18.76;73.78;94754.66;5023609;28;20018;-83
2022/06/10 06:17:10;;;;;;;10.07;7.82;;;;;;;18.72;73.27;94750.78;5006295;28;20029;-82
2022/06/10 06:19:36;;;;;;;9.75;8.10;;;;;;;18.60;73.97;94750.84;4992613;28;20034;-82
2022/06/10 06:22:01;;;;;;;11.15;8.05;;;;;;;18.52;74.42;94752.06;5008363;28;20026;-82
2022/06/10 06:24:27;;;;;;;10.23;8.10;;;;;;;18.57;74.82;94754.03;4991503;28;20496;-83
2022/06/10 06:26:53;;;;;;;10.88;8.43;;;;;;;18.67;74.08;94758.00;4989699;28;20041;-84
2022/06/10 06:29:19;;;;;;;10.68;8.55;;;;;;;18.67;73.95;94763.44;5007901;28;20408;-83
2022/06/10 06:31:45;;;;;;;10.32;8.52;;;;;;;18.60;74.03;94764.44;5006050;28;20032;-82
2022/06/10 06:34:10;;;;;;;10.93;8.90;;;;;;;18.59;74.04;94762.75;4990795;28;20400;-84
2022/06/10 06:36:42;;;;;;;9.68;8.65;;;;;;;18.62;74.15;94756.84;5008249;28;20044;-83
2022/06/10 06:39:07;;;;;;;12.55;9.07;;;;;;;18.75;74.52;94760.31;5006952;28;20018;-82
2022/06/10 06:41:33;;;;;;;10.23;8.52;;;;;;;18.80;74.25;94763.13;5024380;28;20436;-81
2022/06/10 06:43:59;;;;;;;13.75;9.43;;;;;;;18.90;74.12;94763.31;5006877;28;20025;-82
2022/06/10 06:46:24;;;;;;;10.68;9.23;;;;;;;18.91;73.61;94764.09;5007405;28;20052;-82
2022/06/10 06:48:50;;;;;;;10.73;8.80;;;;;;;18.80;73.62;94762.31;5005311;28;20048;-82
2022/06/10 06:51:15;;;;;;;9.73;8.73;;;;;;;18.80;74.09;94763.13;5007217;28;20030;-83
2022/06/10 06:53:41;;;;;;;11.88;9.98;;;;;;;18.86;74.47;94759.41;5007235;28;20041;-84
2022/06/10 06:56:07;;;;;;;14.43;8.93;;;;;;;18.94;73.49;94763.63;5006410;28;20272;-85
2022/06/10 06:58:32;;;;;;;12.07;8.82;;;;;;;18.94;73.85;94758.22;4990528;28;20021;-83
2022/06/10 07:00:58;;;;;;;11.80;9.55;;;;;;;18.94;73.46;94752.78;4988621;28;20018;-82
2022/06/10 07:03:24;;;;;;;12.23;9.63;;;;;;;19.00;73.88;94753.66;5007154;28;20242;-82
2022/06/10 07:05:49;;;;;;;10.88;9.77;;;;;;;19.02;73.48;94757.78;4992141;28;20065;-83
2022/06/10 07:08:15;;;;;;;12.00;9.50;;;;;;;19.10;72.65;94756.56;5024312;28;20030;-83
2022/06/10 07:10:40;;;;;;;10.73;9.02;;;;;;;19.15;72.75;94758.56;5021757;28;20030;-84
2022/06/10 07:13:06;;;;;;;10.35;8.60;;;;;;;19.21;72.28;94754.00;5006992;28;20026;-84
2022/06/10 07:15:31;;;;;;;10.60;8.90;;;;;;;19.30;72.39;94754.44;5005516;28;20666;-84
2022/06/10 07:17:57;;;;;;;11.77;8.77;;;;;;;19.27;72.42;94756.56;5006241;28;20489;-83
2022/06/10 07:20:25;;;;;;;9.38;8.32;;;;;;;19.34;71.64;94750.97;5006877;28;20496;-84
2022/06/10 07:22:50;;;;;;;9.60;8.27;;;;;;;19.36;70.88;94756.94;5021873;28;20033;-84
2022/06/10 07:25:16;;;;;;;10.15;8.02;;;;;;;19.31;72.07;94756.91;5006876;28;20026;-83
2022/06/10 07:27:43;;;;;;;10.25;7.95;;;;;;;19.37;71.22;94758.63;4988738;28;20030;-83
2022/06/10 07:30:09;;;;;;;9.82;7.43;;;;;;;19.38;70.83;94757.53;4990259;28;20507;-82
2022/06/10 07:32:34;;;;;;;9.15;8.10;;;;;;;19.43;71.10;94764.09;5021894;28;20589;-83
2022/06/10 07:34:59;;;;;;;9.07;8.18;;;;;;;19.44;70.96;94768.50;5006404;28;20030;-82
2022/06/10 07:37:25;;;;;;;12.63;8.98;;;;;;;19.44;71.74;94766.56;4989904;28;20042;-83
2022/06/10 07:39:51;;;;;;;11.02;8.77;;;;;;;19.49;71.38;94772.09;5005460;28;20963;-83
2022/06/10 07:42:17;;;;;;;10.68;9.25;;;;;;;19.48;71.29;94764.19;5006988;28;20555;-85
2022/06/10 07:44:43;;;;;;;15.05;9.80;;;;;;;19.56;70.90;94768.38;5004704;28;20030;-83
2022/06/10 07:47:10;;;;;;;11.32;9.82;;;;;;;19.58;70.91;94768.94;5007473;28;20117;-82
2022/06/10 07:49:36;;;;;;;10.27;9.27;;;;;;;19.49;70.39;94763.94;5004830;28;20072;-85
2022/06/10 07:52:03;;;;;;;12.13;9.13;;;;;;;19.40;70.53;94765.44;4974489;28;20486;-84
2022/06/10 07:54:29;;;;;;;9.75;8.77;;;;;;;19.41;71.52;94771.72;4988530;28;20512;-83
2022/06/10 07:56:55;;;;;;;13.35;9.00;;;;;;;19.44;71.46;94772.00;5006154;28;20642;-84
2022/06/10 07:59:20;;;;;;;9.80;7.95;;;;;;;19.44;69.33;94772.00;5006158;28;20029;-84
2022/06/10 08:01:46;;;;;;;10.55;7.90;;;;;;;19.41;69.46;94774.44;4988586;28;20076;-82
2022/06/10 08:04:11;;;;;;;10.48;7.75;;;;;;;19.34;70.06;94785.47;5006176;28;20022;-85
2022/06/10 08:06:40;;;;;;;12.10;8.75;;;;;;;19.35;69.49;94774.34;5004460;28;20056;-83
2022/06/10 08:09:05;;;;;;;10.38;8.50;;;;;;;19.38;70.90;94776.56;4990075;28;20069;-83
2022/06/10 08:11:31;;;;;;;12.00;9.63;;;;;;;19.49;70.25;94779.44;5003913;28;20038;-84
2022/06/10 08:13:56;;;;;;;12.55;8.70;;;;;;;19.55;70.06;94780.34;5006272;28;20068;-84
2022/06/10 08:16:23;;;;;;;11.30;8.82;;;;;;;19.58;68.45;94780.66;5005894;28;20088;-83
2022/06/10 08:18:49;;;;;;;8.82;7.60;;;;;;;19.59;68.91;94776.84;4989122;28;20500;-83
2022/06/10 08:22:32;;;;;;;9.40;7.80;;;;;;;19.66;68.95;94778.56;4989213;28;20037;-83
2022/06/10 08:24:15;;;;;;;10.23;7.45;;;;;;;19.67;68.22;94778.31;5004207;28;20030;-84
2022/06/10 08:26:40;;;;;;;9.60;7.53;;;;;;;19.73;70.17;94776.50;5008686;28;20033;-84
2022/06/10 08:29:07;;;;;;;10.52;7.10;;;;;;;19.68;67.63;94781.88;5009444;28;20499;-84
2022/06/10 08:31:32;;;;;;;6.80;6.10;;;;;;;19.57;66.61;94787.16;5025795;28;20025;-83
2022/06/10 08:33:58;;;;;;;8.68;6.55;;;;;;;19.59;67.32;94790.47;4993442;28;20091;-82
2022/06/10 08:36:24;;;;;;;7.25;6.50;;;;;;;19.56;66.73;94792.84;5010342;28;20492;-83
2022/06/10 08:38:50;;;;;;;7.18;6.30;;;;;;;19.62;67.31;94794.56;5011228;28;20030;-83
2022/06/10 08:41:21;;;;;;;8.10;6.55;;;;;;;19.63;67.17;94802.50;5008011;28;20026;-83
2022/06/10 08:43:55;;;;;;;8.85;6.22;;;;;;;19.71;67.49;94794.97;5011590;28;20084;-84
2022/06/10 08:46:42;;;;;;;10.55;7.13;;;;;;;19.68;67.47;94804.47;5007308;28;20523;-83
2022/06/10 08:49:24;;;;;;;8.80;6.65;;;;;;;19.64;67.64;94798.69;5010670;28;20033;-83
2022/06/10 08:52:18;;;;;;;9.27;6.75;;;;;;;19.72;67.56;94804.78;5009621;28;20072;-83
2022/06/10 08:55:05;;;;;;;10.05;7.15;;;;;;;19.73;67.04;94809.16;5007292;28;20123;-84
2022/06/10 08:57:36;;;;;;;11.32;6.60;;;;;;;19.70;66.64;94818.63;5008976;28;20044;-82
2022/06/10 09:00:17;;;;;;;8.35;6.38;;;;;;;19.76;65.22;94814.91;4992325;28;20366;-84
2022/06/10 09:02:45;;;;;;;8.77;5.82;;;;;;;19.73;65.79;94817.31;5007672;28;20438;-84
2022/06/10 09:05:21;;;;;;;8.88;6.05;;;;;;;19.76;66.22;94816.81;4993432;28;20081;-84
2022/06/10 09:07:49;;;;;;;7.57;6.68;;;;;;;19.74;66.93;94808.91;5007285;28;20061;-84
2022/06/10 09:10:19;;;;;;;10.07;6.72;;;;;;;19.80;67.56;94817.94;5009135;28;20030;-84
2022/06/10 09:13:05;;;;;;;7.38;6.35;;;;;;;19.85;66.99;94809.03;4991542;28;20407;-83
2022/06/10 09:15:31;;;;;;;6.22;5.50;;;;;;;19.87;66.58;94818.59;5008946;28;20100;-85
2022/06/10 09:18:22;;;;;;;6.90;5.63;;;;;;;19.78;66.30;94820.09;4992502;28;20116;-84
2022/06/10 09:20:56;;;;;;;9.52;6.03;;;;;;;19.83;67.49;94811.19;5018014;28;20046;-84
2022/06/10 09:23:43;;;;;;;6.70;5.85;;;;;;;19.92;67.06;94814.28;5009529;28;20025;-83
2022/06/10 09:26:17;;;;;;;8.15;5.85;;;;;;;19.97;66.66;94817.09;4993823;28;20579;-84
2022/06/10 09:28:42;;;;;;;7.32;5.50;;;;;;;19.98;66.97;94811.41;4992749;28;20552;-87
2022/06/10 09:31:31;;;;;;;6.55;5.85;;;;;;;20.07;67.31;94811.78;4992809;28;20116;-86
2022/06/10 09:34:29;;;;;;;6.30;5.32;;;;;;;20.23;66.93;94806.56;4991385;28;20025;-83
2022/06/10 09:37:09;;;;;;;6.00;5.05;;;;;;;20.33;67.25;94808.59;5008266;28;20562;-83
2022/06/10 09:42:41;;;;;;;6.35;4.47;;;;;;;20.48;64.51;94805.19;5007952;28;20096;-83
2022/06/10 09:45:17;;;;;;;6.07;4.82;;;;;;;20.56;64.74;94803.91;5008791;28;20034;-83
2022/06/10 09:48:13;;;;;;;4.35;3.83;;;;;;;20.62;64.69;94811.88;5007125;28;20042;-82
2022/06/10 09:50:42;;;;;;;6.95;4.40;;;;;;;20.73;64.32;94807.34;5008720;28;20033;-83
2022/06/10 09:53:41;;;;;;;6.75;4.40;;;;;;;20.74;64.18;94814.47;5008729;28;20037;-84
2022/06/10 09:56:37;;;;;;;9.07;4.80;;;;;;;20.72;64.93;94813.06;5007235;28;20528;-84
2022/06/10 09:59:11;;;;;;;6.90;5.55;;;;;;;20.67;65.86;94813.03;5008919;28;20037;-83
2022/06/10 10:02:15;;;;;;;5.40;4.75;;;;;;;20.70;64.89;94821.50;5010000;28;20030;-85
2022/06/10 10:05:17;;;;;;;8.88;4.78;;;;;;;20.69;63.82;94827.22;4985667;28;20038;-84
2022/06/10 10:07:45;;;;;;;5.13;4.32;;;;;;;20.66;64.11;94828.56;4986832;28;20749;-83
2022/06/10 10:10:17;;;;;;;7.78;4.82;;;;;;;20.61;64.20;94832.03;5003520;28;20517;-84
2022/06/10 10:13:00;;;;;;;6.97;4.20;;;;;;;20.57;62.17;94828.16;5007456;28;20030;-84
2022/06/10 10:15:31;;;;;;;7.88;4.25;;;;;;;20.56;61.93;94828.44;5009121;28;20037;-83
2022/06/10 10:18:03;;;;;;;5.28;3.17;;;;;;;20.49;61.61;94825.94;5006217;28;20476;-84
2022/06/10 10:20:51;;;;;;;;;;;;;;;20.38;61.45;94824.97;5008037;28;20054;-84
2022/06/10 10:23:20;;;;;;;4.53;3.10;;;;;;;20.31;62.24;94827.06;5007851;28;19914;-83
2022/06/10 10:25:45;;;;;;;7.53;3.45;;;;;;;20.24;62.76;94836.25;4989548;28;20034;-83
2022/06/10 10:28:15;;;;;;;6.60;2.95;;;;;;;20.13;63.33;94837.19;5008796;28;20022;-83
2022/06/10 10:30:57;;;;;;;4.50;3.15;;;;;;;20.05;63.72;94834.91;4989708;28;20022;-83
2022/06/10 10:33:23;;;;;;;4.72;3.30;;;;;;;19.99;64.61;94832.06;5007786;28;20103;-84
2022/06/10 10:35:50;;;;;;;4.43;3.08;;;;;;;19.98;65.00;94829.63;5008029;28;20452;-85
2022/06/10 10:38:32;;;;;;;4.75;3.95;;;;;;;20.04;65.25;94836.78;4989847;28;20030;-84
2022/06/10 10:40:57;;;;;;;6.07;4.20;;;;;;;20.09;65.38;94836.03;5024309;28;20469;-83
2022/06/10 10:43:27;;;;;;;6.57;4.30;;;;;;;20.08;65.45;94843.41;4988846;28;20037;-83
2022/06/10 10:46:02;;;;;;;9.38;4.80;;;;;;;20.08;64.95;94837.97;5024205;28;20468;-84
2022/06/10 10:48:32;;;;;;;6.55;4.28;;;;;;;20.04;64.82;94850.41;5005232;28;20048;-83
2022/06/10 10:51:10;;;;;;;7.43;3.92;;;;;;;20.01;65.55;94851.72;4990559;28;20907;-83
2022/06/10 10:53:36;;;;;;;6.00;3.70;;;;;;;20.10;66.72;94851.31;5008342;28;20060;-82
2022/06/10 10:56:02;;;;;;;5.97;3.63;;;;;;;20.13;66.12;94848.88;5004507;28;20594;-84
2022/06/10 10:58:34;;;;;;;5.75;3.40;;;;;;;20.23;67.12;94855.56;5023534;28;20053;-82
2022/06/10 11:01:43;;;;;;;6.30;4.32;;;;;;;20.18;66.62;94840.00;5021312;28;20041;-83
2022/06/10 11:03:55;;;;;;;6.90;4.30;;;;;;;20.13;67.34;94832.56;5006911;28;20460;-83
2022/06/10 11:06:29;;;;;;;8.05;4.50;;;;;;;20.23;66.80;94831.88;5006658;28;20111;-83
2022/06/10 11:09:24;;;;;;;8.02;4.70;;;;;;;20.20;67.21;94826.13;5005234;28;20022;-85
2022/06/10 11:11:50;;;;;;;8.77;5.20;;;;;;;20.23;69.38;94836.50;5014750;28;20408;-82
2022/06/10 11:14:31;;;;;;;4.47;4.00;;;;;;;20.33;69.13;94831.16;4988096;28;20029;-83
2022/06/10 11:17:06;;;;;;;5.20;3.70;;;;;;;20.36;68.35;94836.09;5006255;28;20052;-83
2022/06/10 11:19:32;;;;;;;6.88;4.63;;;;;;;20.44;69.04;94828.59;5006945;28;20559;-84
2022/06/10 11:22:03;;;;;;;5.38;4.30;;;;;;;20.45;69.12;94827.50;5006351;28;20033;-83
2022/06/10 11:24:35;;;;;;;5.63;4.60;;;;;;;20.50;67.98;94827.56;5007855;28;20029;-84
2022/06/10 11:27:03;;;;;;;5.32;4.50;;;;;;;20.44;68.25;94832.09;5004759;28;20548;-83
2022/06/10 11:29:29;;;;;;;9.75;5.10;;;;;;;20.45;68.68;94833.78;4990495;28;20066;-84
2022/06/10 11:32:01;;;;;;;7.07;5.10;;;;;;;20.40;68.83;94836.44;5005359;28;20049;-83
2022/06/10 11:34:36;;;;;;;6.55;4.95;;;;;;;20.45;68.30;94822.88;5005434;28;20061;-83
2022/06/10 11:37:19;;;;;;;7.55;5.05;;;;;;;20.36;68.18;94819.78;4990570;28;20044;-85
2022/06/10 11:39:48;;;;;;;;;;;;;;;20.40;68.94;94824.72;4989001;28;20040;-83
2022/06/10 11:42:25;;;;;;;9.52;6.00;;;;;;;20.34;68.40;94819.22;5007551;28;20427;-83
2022/06/10 11:44:54;;;;;;;8.82;5.85;;;;;;;20.36;68.48;94829.84;5004799;28;20061;-83
2022/06/10 11:47:23;;;;;;;17.85;6.57;;;;;;;20.33;69.13;94825.72;4989467;28;20037;-83
2022/06/10 11:49:54;;;;;;;7.13;6.20;;;;;;;20.40;70.09;94824.72;5006076;28;20036;-84
2022/06/10 11:52:30;;;;;;;7.85;6.32;;;;;;;20.41;67.09;94810.03;4988284;28;20036;-83
2022/06/10 11:55:18;;;;;;;6.53;5.78;;;;;;;20.43;66.54;94818.75;4990565;28;20469;-83
2022/06/10 12:00:49;;;;;;;8.00;6.55;;;;;;;20.38;67.79;94811.34;5004842;28;20566;-83
2022/06/10 12:03:32;;;;;;;8.75;6.55;;;;;;;20.51;68.35;94818.31;5006196;28;20026;-83
2022/06/10 12:05:58;;;;;;;9.38;6.78;;;;;;;20.49;68.65;94809.59;5003945;28;20034;-83